<?xml version='1.0' encoding='UTF-8'?><gpx version="1.1" creator="JPX - https://github.com/jenetics/jpx" xmlns="http://www.topografix.com/GPX/1/1"><trk><trkseg><trkpt lat="45.9782867" lon="12.2663433"><ele>399.79999999999995</ele><time>2026-04-10T08:48:57.238Z</time></trkpt><trkpt lat="45.9783667" lon="12.26637"><ele>401.6</ele><time>2026-04-10T08:48:59.238Z</time></trkpt><trkpt lat="45.9784617" lon="12.2664017"><ele>403.4</ele><time>2026-04-10T08:49:01.238Z</time></trkpt><trkpt lat="45.9785667" lon="12.26648"><ele>405.20000000000005</ele><time>2026-04-10T08:49:03.238Z</time></trkpt><trkpt lat="45.978655" lon="12.266585"><ele>407.0</ele><time>2026-04-10T08:49:05.238Z</time></trkpt><trkpt lat="45.9787117" lon="12.2667283"><ele>406.99999999999994</ele><time>2026-04-10T08:49:07.238Z</time></trkpt><trkpt lat="45.978735" lon="12.266835"><ele>407.0</ele><time>2026-04-10T08:49:08.238Z</time></trkpt><trkpt lat="45.9787417" lon="12.2669383"><ele>407.0</ele><time>2026-04-10T08:49:09.238Z</time></trkpt><trkpt lat="45.9787433" lon="12.2670467"><ele>407.0</ele><time>2026-04-10T08:49:10.238Z</time></trkpt><trkpt lat="45.978745" lon="12.26717"><ele>406.99999999999994</ele><time>2026-04-10T08:49:11.238Z</time></trkpt><trkpt lat="45.9787533" lon="12.26733"><ele>407.0</ele><time>2026-04-10T08:49:12.238Z</time></trkpt><trkpt lat="45.978765" lon="12.26745"><ele>408.7142857142857</ele><time>2026-04-10T08:49:13.238Z</time></trkpt><trkpt lat="45.9787783" lon="12.2675533"><ele>410.42857142857144</ele><time>2026-04-10T08:49:14.238Z</time></trkpt><trkpt lat="45.9788067" lon="12.26764"><ele>412.1428571428571</ele><time>2026-04-10T08:49:15.238Z</time></trkpt><trkpt lat="45.9788533" lon="12.2677083"><ele>413.8571428571429</ele><time>2026-04-10T08:49:16.238Z</time></trkpt><trkpt lat="45.97891" lon="12.2677517"><ele>415.57142857142856</ele><time>2026-04-10T08:49:17.237Z</time></trkpt><trkpt lat="45.9789733" lon="12.2677767"><ele>417.2857142857143</ele><time>2026-04-10T08:49:18.238Z</time></trkpt><trkpt lat="45.9790433" lon="12.26778"><ele>419.0</ele><time>2026-04-10T08:49:19.238Z</time></trkpt><trkpt lat="45.9791367" lon="12.267755"><ele>417.2</ele><time>2026-04-10T08:49:20.238Z</time></trkpt><trkpt lat="45.9792467" lon="12.2677133"><ele>415.4</ele><time>2026-04-10T08:49:21.237Z</time></trkpt><trkpt lat="45.9793533" lon="12.2676967"><ele>413.6</ele><time>2026-04-10T08:49:22.238Z</time></trkpt><trkpt lat="45.9794533" lon="12.267695"><ele>411.8</ele><time>2026-04-10T08:49:23.238Z</time></trkpt><trkpt lat="45.9795467" lon="12.267705"><ele>410.0</ele><time>2026-04-10T08:49:24.238Z</time></trkpt><trkpt lat="45.9796333" lon="12.26775"><ele>410.0</ele><time>2026-04-10T08:49:25.238Z</time></trkpt><trkpt lat="45.9797217" lon="12.2678183"><ele>410.0</ele><time>2026-04-10T08:49:26.238Z</time></trkpt><trkpt lat="45.9798167" lon="12.2678967"><ele>410.0</ele><time>2026-04-10T08:49:27.238Z</time></trkpt><trkpt lat="45.97992" lon="12.26797"><ele>410.0</ele><time>2026-04-10T08:49:28.238Z</time></trkpt><trkpt lat="45.9800183" lon="12.2680267"><ele>410.0</ele><time>2026-04-10T08:49:29.238Z</time></trkpt><trkpt lat="45.9801167" lon="12.2680783"><ele>409.2</ele><time>2026-04-10T08:49:30.238Z</time></trkpt><trkpt lat="45.9802" lon="12.26815"><ele>408.4</ele><time>2026-04-10T08:49:31.238Z</time></trkpt><trkpt lat="45.9802817" lon="12.2682367"><ele>407.6</ele><time>2026-04-10T08:49:32.238Z</time></trkpt><trkpt lat="45.9803733" lon="12.2683233"><ele>406.8</ele><time>2026-04-10T08:49:33.238Z</time></trkpt><trkpt lat="45.9804667" lon="12.268395"><ele>406.0</ele><time>2026-04-10T08:49:34.238Z</time></trkpt><trkpt lat="45.9805417" lon="12.2684433"><ele>406.0</ele><time>2026-04-10T08:49:35.238Z</time></trkpt><trkpt lat="45.9806483" lon="12.26845"><ele>406.0</ele><time>2026-04-10T08:49:37.238Z</time></trkpt><trkpt lat="45.9807133" lon="12.2683817"><ele>406.0</ele><time>2026-04-10T08:49:40.238Z</time></trkpt><trkpt lat="45.9806933" lon="12.2682583"><ele>406.0</ele><time>2026-04-10T08:49:42.238Z</time></trkpt><trkpt lat="45.9806633" lon="12.2681117"><ele>406.0</ele><time>2026-04-10T08:49:44.238Z</time></trkpt><trkpt lat="45.980705" lon="12.2680067"><ele>405.1666666666667</ele><time>2026-04-10T08:49:46.238Z</time></trkpt><trkpt lat="45.9807967" lon="12.2679967"><ele>404.33333333333337</ele><time>2026-04-10T08:49:48.238Z</time></trkpt><trkpt lat="45.9808617" lon="12.268005"><ele>403.5</ele><time>2026-04-10T08:49:49.238Z</time></trkpt><trkpt lat="45.9809317" lon="12.2680417"><ele>402.66666666666663</ele><time>2026-04-10T08:49:50.238Z</time></trkpt><trkpt lat="45.9810033" lon="12.2680783"><ele>401.8333333333333</ele><time>2026-04-10T08:49:51.238Z</time></trkpt><trkpt lat="45.9810767" lon="12.2681417"><ele>401.0</ele><time>2026-04-10T08:49:52.238Z</time></trkpt><trkpt lat="45.981125" lon="12.26824"><ele>400.99999999999994</ele><time>2026-04-10T08:49:53.238Z</time></trkpt><trkpt lat="45.9811767" lon="12.26835"><ele>401.0</ele><time>2026-04-10T08:49:54.238Z</time></trkpt><trkpt lat="45.98124" lon="12.268425"><ele>401.0</ele><time>2026-04-10T08:49:55.238Z</time></trkpt><trkpt lat="45.9813083" lon="12.268475"><ele>401.0</ele><time>2026-04-10T08:49:56.238Z</time></trkpt><trkpt lat="45.981385" lon="12.26848"><ele>400.99999999999994</ele><time>2026-04-10T08:49:57.238Z</time></trkpt><trkpt lat="45.981475" lon="12.2684433"><ele>401.0</ele><time>2026-04-10T08:49:58.238Z</time></trkpt><trkpt lat="45.981555" lon="12.26837"><ele>400.99999999999994</ele><time>2026-04-10T08:49:59.238Z</time></trkpt><trkpt lat="45.9816267" lon="12.2682717"><ele>401.0</ele><time>2026-04-10T08:50:00.238Z</time></trkpt><trkpt lat="45.9816883" lon="12.2681817"><ele>401.0</ele><time>2026-04-10T08:50:01.238Z</time></trkpt><trkpt lat="45.9817567" lon="12.2681067"><ele>401.0</ele><time>2026-04-10T08:50:02.238Z</time></trkpt><trkpt lat="45.9818283" lon="12.2680467"><ele>400.99999999999994</ele><time>2026-04-10T08:50:03.238Z</time></trkpt><trkpt lat="45.9819033" lon="12.2680133"><ele>401.0</ele><time>2026-04-10T08:50:04.237Z</time></trkpt><trkpt lat="45.9819967" lon="12.268005"><ele>396.75</ele><time>2026-04-10T08:50:05.238Z</time></trkpt><trkpt lat="45.9820967" lon="12.2680183"><ele>392.5</ele><time>2026-04-10T08:50:06.238Z</time></trkpt><trkpt lat="45.9822183" lon="12.268025"><ele>388.25</ele><time>2026-04-10T08:50:07.238Z</time></trkpt><trkpt lat="45.982345" lon="12.2680267"><ele>384.0</ele><time>2026-04-10T08:50:08.238Z</time></trkpt><trkpt lat="45.9824767" lon="12.2680233"><ele>383.5</ele><time>2026-04-10T08:50:09.238Z</time></trkpt><trkpt lat="45.9826117" lon="12.2679967"><ele>383.0</ele><time>2026-04-10T08:50:10.238Z</time></trkpt><trkpt lat="45.9827267" lon="12.2679633"><ele>382.5</ele><time>2026-04-10T08:50:11.238Z</time></trkpt><trkpt lat="45.9828283" lon="12.26792"><ele>382.0</ele><time>2026-04-10T08:50:12.238Z</time></trkpt><trkpt lat="45.9829233" lon="12.2679083"><ele>382.0</ele><time>2026-04-10T08:50:13.238Z</time></trkpt><trkpt lat="45.983025" lon="12.2679317"><ele>382.0</ele><time>2026-04-10T08:50:14.238Z</time></trkpt><trkpt lat="45.98312" lon="12.26795"><ele>382.0</ele><time>2026-04-10T08:50:15.238Z</time></trkpt><trkpt lat="45.9832083" lon="12.2679733"><ele>382.0</ele><time>2026-04-10T08:50:16.238Z</time></trkpt><trkpt lat="45.9832967" lon="12.2679933"><ele>382.0</ele><time>2026-04-10T08:50:17.238Z</time></trkpt><trkpt lat="45.9833867" lon="12.268015"><ele>385.0</ele><time>2026-04-10T08:50:18.238Z</time></trkpt><trkpt lat="45.9834783" lon="12.2680317"><ele>388.0</ele><time>2026-04-10T08:50:19.238Z</time></trkpt><trkpt lat="45.9835783" lon="12.2680567"><ele>391.0</ele><time>2026-04-10T08:50:20.238Z</time></trkpt><trkpt lat="45.9836833" lon="12.2680833"><ele>394.0</ele><time>2026-04-10T08:50:21.238Z</time></trkpt><trkpt lat="45.983795" lon="12.2681133"><ele>397.0</ele><time>2026-04-10T08:50:22.237Z</time></trkpt><trkpt lat="45.9839067" lon="12.2681433"><ele>397.40000000000003</ele><time>2026-04-10T08:50:23.237Z</time></trkpt><trkpt lat="45.98402" lon="12.2681733"><ele>397.8</ele><time>2026-04-10T08:50:24.237Z</time></trkpt><trkpt lat="45.9841317" lon="12.2681967"><ele>398.2</ele><time>2026-04-10T08:50:25.237Z</time></trkpt><trkpt lat="45.9842417" lon="12.2682"><ele>398.6</ele><time>2026-04-10T08:50:26.237Z</time></trkpt><trkpt lat="45.984345" lon="12.2681867"><ele>399.0</ele><time>2026-04-10T08:50:27.237Z</time></trkpt><trkpt lat="45.98444" lon="12.268155"><ele>401.4</ele><time>2026-04-10T08:50:28.236Z</time></trkpt><trkpt lat="45.9845333" lon="12.2681217"><ele>403.79999999999995</ele><time>2026-04-10T08:50:29.237Z</time></trkpt><trkpt lat="45.9846233" lon="12.26809"><ele>406.20000000000005</ele><time>2026-04-10T08:50:30.237Z</time></trkpt><trkpt lat="45.9847083" lon="12.2680517"><ele>408.6</ele><time>2026-04-10T08:50:31.237Z</time></trkpt><trkpt lat="45.984795" lon="12.2680117"><ele>411.0</ele><time>2026-04-10T08:50:32.237Z</time></trkpt><trkpt lat="45.984885" lon="12.2679683"><ele>412.0</ele><time>2026-04-10T08:50:33.237Z</time></trkpt><trkpt lat="45.9849633" lon="12.2679333"><ele>413.0</ele><time>2026-04-10T08:50:34.237Z</time></trkpt><trkpt lat="45.9850333" lon="12.2679067"><ele>414.0</ele><time>2026-04-10T08:50:35.237Z</time></trkpt><trkpt lat="45.985095" lon="12.267875"><ele>415.0</ele><time>2026-04-10T08:50:36.237Z</time></trkpt><trkpt lat="45.98516" lon="12.26783"><ele>416.0</ele><time>2026-04-10T08:50:38.237Z</time></trkpt><trkpt lat="45.9851667" lon="12.2677083"><ele>417.0</ele><time>2026-04-10T08:50:48.237Z</time></trkpt><trkpt lat="45.9850767" lon="12.26757"><ele>417.0</ele><time>2026-04-10T08:50:50.237Z</time></trkpt><trkpt lat="45.9850217" lon="12.2674717"><ele>417.0</ele><time>2026-04-10T08:50:51.237Z</time></trkpt><trkpt lat="45.9849683" lon="12.2673583"><ele>417.0</ele><time>2026-04-10T08:50:52.237Z</time></trkpt><trkpt lat="45.9849267" lon="12.2672233"><ele>417.0</ele><time>2026-04-10T08:50:53.237Z</time></trkpt><trkpt lat="45.9848933" lon="12.2670817"><ele>417.0</ele><time>2026-04-10T08:50:54.237Z</time></trkpt><trkpt lat="45.9848667" lon="12.2669483"><ele>417.3333333333333</ele><time>2026-04-10T08:50:55.237Z</time></trkpt><trkpt lat="45.98484" lon="12.2668217"><ele>417.66666666666663</ele><time>2026-04-10T08:50:56.237Z</time></trkpt><trkpt lat="45.9848083" lon="12.2667133"><ele>418.0</ele><time>2026-04-10T08:50:57.237Z</time></trkpt><trkpt lat="45.984765" lon="12.2666133"><ele>418.3333333333333</ele><time>2026-04-10T08:50:58.237Z</time></trkpt><trkpt lat="45.9847133" lon="12.2665283"><ele>418.66666666666663</ele><time>2026-04-10T08:50:59.237Z</time></trkpt><trkpt lat="45.9846583" lon="12.26645"><ele>419.0</ele><time>2026-04-10T08:51:00.237Z</time></trkpt><trkpt lat="45.984605" lon="12.2663783"><ele>419.4</ele><time>2026-04-10T08:51:01.237Z</time></trkpt><trkpt lat="45.9845317" lon="12.2662417"><ele>419.79999999999995</ele><time>2026-04-10T08:51:03.237Z</time></trkpt><trkpt lat="45.98453" lon="12.2661483"><ele>420.20000000000005</ele><time>2026-04-10T08:51:04.237Z</time></trkpt><trkpt lat="45.9845533" lon="12.266045"><ele>420.6</ele><time>2026-04-10T08:51:05.237Z</time></trkpt><trkpt lat="45.9846133" lon="12.265885"><ele>421.0</ele><time>2026-04-10T08:51:06.237Z</time></trkpt><trkpt lat="45.98468" lon="12.2657133"><ele>422.25</ele><time>2026-04-10T08:51:07.237Z</time></trkpt><trkpt lat="45.9847117" lon="12.26556"><ele>423.5</ele><time>2026-04-10T08:51:08.237Z</time></trkpt><trkpt lat="45.9847117" lon="12.2654133"><ele>424.75</ele><time>2026-04-10T08:51:09.237Z</time></trkpt><trkpt lat="45.9846817" lon="12.2652383"><ele>426.0</ele><time>2026-04-10T08:51:10.237Z</time></trkpt><trkpt lat="45.9846567" lon="12.2650383"><ele>426.0</ele><time>2026-04-10T08:51:11.236Z</time></trkpt><trkpt lat="45.9846383" lon="12.2648333"><ele>426.0</ele><time>2026-04-10T08:51:12.237Z</time></trkpt><trkpt lat="45.984615" lon="12.2646483"><ele>426.0</ele><time>2026-04-10T08:51:13.237Z</time></trkpt><trkpt lat="45.9845767" lon="12.26449"><ele>426.0</ele><time>2026-04-10T08:51:14.236Z</time></trkpt><trkpt lat="45.9845333" lon="12.264355"><ele>427.8</ele><time>2026-04-10T08:51:15.237Z</time></trkpt><trkpt lat="45.9844717" lon="12.2642817"><ele>429.6</ele><time>2026-04-10T08:51:16.236Z</time></trkpt><trkpt lat="45.9843983" lon="12.2642567"><ele>431.4</ele><time>2026-04-10T08:51:17.237Z</time></trkpt><trkpt lat="45.9843" lon="12.2642883"><ele>433.2</ele><time>2026-04-10T08:51:18.236Z</time></trkpt><trkpt lat="45.9841517" lon="12.26438"><ele>435.0</ele><time>2026-04-10T08:51:19.237Z</time></trkpt><trkpt lat="45.9840183" lon="12.26446"><ele>430.6</ele><time>2026-04-10T08:51:20.237Z</time></trkpt><trkpt lat="45.9838917" lon="12.2645083"><ele>426.2</ele><time>2026-04-10T08:51:21.236Z</time></trkpt><trkpt lat="45.9837917" lon="12.264505"><ele>421.79999999999995</ele><time>2026-04-10T08:51:22.237Z</time></trkpt><trkpt lat="45.98371" lon="12.264445"><ele>417.4</ele><time>2026-04-10T08:51:23.237Z</time></trkpt><trkpt lat="45.9836283" lon="12.2643183"><ele>413.0</ele><time>2026-04-10T08:51:24.237Z</time></trkpt><trkpt lat="45.9835533" lon="12.2641433"><ele>414.75</ele><time>2026-04-10T08:51:25.237Z</time></trkpt><trkpt lat="45.9834783" lon="12.26394"><ele>416.5</ele><time>2026-04-10T08:51:26.237Z</time></trkpt><trkpt lat="45.9834167" lon="12.26376"><ele>418.25</ele><time>2026-04-10T08:51:27.236Z</time></trkpt><trkpt lat="45.9833633" lon="12.2636183"><ele>420.0</ele><time>2026-04-10T08:51:28.237Z</time></trkpt><trkpt lat="45.9833133" lon="12.2634933"><ele>414.0</ele><time>2026-04-10T08:51:29.237Z</time></trkpt><trkpt lat="45.9832667" lon="12.2633833"><ele>408.0</ele><time>2026-04-10T08:51:30.237Z</time></trkpt><trkpt lat="45.9832133" lon="12.2633"><ele>402.0</ele><time>2026-04-10T08:51:31.237Z</time></trkpt><trkpt lat="45.9831467" lon="12.2632617"><ele>396.0</ele><time>2026-04-10T08:51:32.237Z</time></trkpt><trkpt lat="45.9830767" lon="12.2632917"><ele>390.0</ele><time>2026-04-10T08:51:33.237Z</time></trkpt><trkpt lat="45.983025" lon="12.2633717"><ele>384.0</ele><time>2026-04-10T08:51:34.237Z</time></trkpt><trkpt lat="45.9830183" lon="12.2635"><ele>384.0</ele><time>2026-04-10T08:51:35.237Z</time></trkpt><trkpt lat="45.983045" lon="12.2636467"><ele>384.0</ele><time>2026-04-10T08:51:36.237Z</time></trkpt><trkpt lat="45.9830817" lon="12.2637933"><ele>384.0</ele><time>2026-04-10T08:51:37.237Z</time></trkpt><trkpt lat="45.9831183" lon="12.2639517"><ele>384.0</ele><time>2026-04-10T08:51:38.237Z</time></trkpt><trkpt lat="45.98315" lon="12.2641"><ele>384.0</ele><time>2026-04-10T08:51:39.237Z</time></trkpt><trkpt lat="45.9831667" lon="12.26424"><ele>384.0</ele><time>2026-04-10T08:51:40.237Z</time></trkpt><trkpt lat="45.9831483" lon="12.2643633"><ele>384.0</ele><time>2026-04-10T08:51:41.237Z</time></trkpt><trkpt lat="45.9831017" lon="12.2644617"><ele>384.0</ele><time>2026-04-10T08:51:42.237Z</time></trkpt><trkpt lat="45.98302" lon="12.2645"><ele>384.0</ele><time>2026-04-10T08:51:43.237Z</time></trkpt><trkpt lat="45.98292" lon="12.2644833"><ele>384.0</ele><time>2026-04-10T08:51:44.237Z</time></trkpt><trkpt lat="45.9828183" lon="12.2644483"><ele>384.0</ele><time>2026-04-10T08:51:45.237Z</time></trkpt><trkpt lat="45.98273" lon="12.2644233"><ele>384.0</ele><time>2026-04-10T08:51:46.237Z</time></trkpt><trkpt lat="45.9826617" lon="12.2644083"><ele>384.0</ele><time>2026-04-10T08:51:47.237Z</time></trkpt><trkpt lat="45.9825417" lon="12.264345"><ele>384.0</ele><time>2026-04-10T08:51:49.237Z</time></trkpt><trkpt lat="45.982495" lon="12.26428"><ele>384.0</ele><time>2026-04-10T08:51:50.237Z</time></trkpt><trkpt lat="45.9825283" lon="12.264095"><ele>384.0</ele><time>2026-04-10T08:51:52.237Z</time></trkpt><trkpt lat="45.9826" lon="12.2639833"><ele>384.0</ele><time>2026-04-10T08:51:53.237Z</time></trkpt><trkpt lat="45.9826817" lon="12.263855"><ele>384.0</ele><time>2026-04-10T08:51:54.237Z</time></trkpt><trkpt lat="45.9827533" lon="12.2636817"><ele>384.0</ele><time>2026-04-10T08:51:55.237Z</time></trkpt><trkpt lat="45.9827933" lon="12.2634717"><ele>384.0</ele><time>2026-04-10T08:51:56.237Z</time></trkpt><trkpt lat="45.982805" lon="12.2632567"><ele>384.0</ele><time>2026-04-10T08:51:57.237Z</time></trkpt><trkpt lat="45.982815" lon="12.263065"><ele>384.0</ele><time>2026-04-10T08:51:58.237Z</time></trkpt><trkpt lat="45.98282" lon="12.2629217"><ele>384.0</ele><time>2026-04-10T08:51:59.237Z</time></trkpt><trkpt lat="45.9828017" lon="12.2628117"><ele>386.25</ele><time>2026-04-10T08:52:00.237Z</time></trkpt><trkpt lat="45.9827383" lon="12.262745"><ele>388.5</ele><time>2026-04-10T08:52:01.237Z</time></trkpt><trkpt lat="45.9826383" lon="12.2627067"><ele>390.75</ele><time>2026-04-10T08:52:02.237Z</time></trkpt><trkpt lat="45.9824983" lon="12.262685"><ele>393.0</ele><time>2026-04-10T08:52:03.237Z</time></trkpt><trkpt lat="45.9823267" lon="12.2626617"><ele>387.25</ele><time>2026-04-10T08:52:04.237Z</time></trkpt><trkpt lat="45.9821633" lon="12.2626467"><ele>381.5</ele><time>2026-04-10T08:52:05.237Z</time></trkpt><trkpt lat="45.98203" lon="12.2626167"><ele>375.75</ele><time>2026-04-10T08:52:06.237Z</time></trkpt><trkpt lat="45.9819217" lon="12.26257"><ele>370.0</ele><time>2026-04-10T08:52:07.237Z</time></trkpt><trkpt lat="45.9818283" lon="12.262495"><ele>370.0</ele><time>2026-04-10T08:52:08.237Z</time></trkpt><trkpt lat="45.9817533" lon="12.2623967"><ele>370.0</ele><time>2026-04-10T08:52:09.237Z</time></trkpt><trkpt lat="45.981715" lon="12.26225"><ele>370.0</ele><time>2026-04-10T08:52:10.237Z</time></trkpt><trkpt lat="45.9816933" lon="12.2620633"><ele>370.0</ele><time>2026-04-10T08:52:11.237Z</time></trkpt><trkpt lat="45.98166" lon="12.2618983"><ele>369.0</ele><time>2026-04-10T08:52:12.237Z</time></trkpt><trkpt lat="45.9815983" lon="12.2617783"><ele>368.0</ele><time>2026-04-10T08:52:13.237Z</time></trkpt><trkpt lat="45.9815133" lon="12.2617117"><ele>367.0</ele><time>2026-04-10T08:52:14.237Z</time></trkpt><trkpt lat="45.9814117" lon="12.261685"><ele>366.0</ele><time>2026-04-10T08:52:15.237Z</time></trkpt><trkpt lat="45.9813283" lon="12.2616417"><ele>365.0</ele><time>2026-04-10T08:52:16.237Z</time></trkpt><trkpt lat="45.9812533" lon="12.2615183"><ele>368.33333333333337</ele><time>2026-04-10T08:52:17.237Z</time></trkpt><trkpt lat="45.981175" lon="12.2613417"><ele>371.6666666666667</ele><time>2026-04-10T08:52:18.237Z</time></trkpt><trkpt lat="45.9811217" lon="12.2611083"><ele>375.0</ele><time>2026-04-10T08:52:19.236Z</time></trkpt><trkpt lat="45.9810967" lon="12.2608467"><ele>373.0</ele><time>2026-04-10T08:52:20.236Z</time></trkpt><trkpt lat="45.98107" lon="12.2605733"><ele>371.0</ele><time>2026-04-10T08:52:21.237Z</time></trkpt><trkpt lat="45.9810533" lon="12.260315"><ele>369.0</ele><time>2026-04-10T08:52:22.237Z</time></trkpt><trkpt lat="45.9810317" lon="12.2601033"><ele>369.0</ele><time>2026-04-10T08:52:23.237Z</time></trkpt><trkpt lat="45.98103" lon="12.25992"><ele>369.0</ele><time>2026-04-10T08:52:24.237Z</time></trkpt><trkpt lat="45.9810567" lon="12.2597383"><ele>369.0</ele><time>2026-04-10T08:52:25.237Z</time></trkpt><trkpt lat="45.98111" lon="12.2595583"><ele>369.0</ele><time>2026-04-10T08:52:26.237Z</time></trkpt><trkpt lat="45.9811867" lon="12.2593733"><ele>364.79999999999995</ele><time>2026-04-10T08:52:27.237Z</time></trkpt><trkpt lat="45.9812517" lon="12.2592067"><ele>360.59999999999997</ele><time>2026-04-10T08:52:28.237Z</time></trkpt><trkpt lat="45.9813067" lon="12.2590583"><ele>356.4</ele><time>2026-04-10T08:52:29.237Z</time></trkpt><trkpt lat="45.981355" lon="12.25894"><ele>352.2</ele><time>2026-04-10T08:52:30.237Z</time></trkpt><trkpt lat="45.981425" lon="12.2588783"><ele>348.0</ele><time>2026-04-10T08:52:31.237Z</time></trkpt><trkpt lat="45.98152" lon="12.2588517"><ele>348.5</ele><time>2026-04-10T08:52:32.237Z</time></trkpt><trkpt lat="45.9816483" lon="12.2588267"><ele>349.0</ele><time>2026-04-10T08:52:33.237Z</time></trkpt><trkpt lat="45.9818" lon="12.2588117"><ele>349.5</ele><time>2026-04-10T08:52:34.237Z</time></trkpt><trkpt lat="45.981955" lon="12.2588017"><ele>350.0</ele><time>2026-04-10T08:52:35.237Z</time></trkpt><trkpt lat="45.9820967" lon="12.2587583"><ele>350.0</ele><time>2026-04-10T08:52:36.237Z</time></trkpt><trkpt lat="45.982205" lon="12.25868"><ele>350.0</ele><time>2026-04-10T08:52:37.237Z</time></trkpt><trkpt lat="45.9822733" lon="12.2585817"><ele>350.0</ele><time>2026-04-10T08:52:38.237Z</time></trkpt><trkpt lat="45.9823033" lon="12.258455"><ele>350.0</ele><time>2026-04-10T08:52:39.237Z</time></trkpt><trkpt lat="45.9822817" lon="12.2583233"><ele>350.0</ele><time>2026-04-10T08:52:40.237Z</time></trkpt><trkpt lat="45.9822167" lon="12.25819"><ele>350.5</ele><time>2026-04-10T08:52:41.237Z</time></trkpt><trkpt lat="45.9821267" lon="12.2580417"><ele>351.0</ele><time>2026-04-10T08:52:42.237Z</time></trkpt><trkpt lat="45.98203" lon="12.2579033"><ele>351.5</ele><time>2026-04-10T08:52:43.237Z</time></trkpt><trkpt lat="45.9819533" lon="12.257785"><ele>352.0</ele><time>2026-04-10T08:52:44.237Z</time></trkpt><trkpt lat="45.98191" lon="12.2576717"><ele>352.0</ele><time>2026-04-10T08:52:45.237Z</time></trkpt><trkpt lat="45.9819017" lon="12.2575683"><ele>352.0</ele><time>2026-04-10T08:52:46.236Z</time></trkpt><trkpt lat="45.9819333" lon="12.2574683"><ele>352.0</ele><time>2026-04-10T08:52:47.237Z</time></trkpt><trkpt lat="45.9819983" lon="12.2573517"><ele>352.0</ele><time>2026-04-10T08:52:48.237Z</time></trkpt><trkpt lat="45.98204" lon="12.2572283"><ele>352.0</ele><time>2026-04-10T08:52:49.236Z</time></trkpt><trkpt lat="45.9820483" lon="12.257105"><ele>352.0</ele><time>2026-04-10T08:52:50.237Z</time></trkpt><trkpt lat="45.98202" lon="12.25699"><ele>352.0</ele><time>2026-04-10T08:52:51.237Z</time></trkpt><trkpt lat="45.981915" lon="12.2569183"><ele>352.0</ele><time>2026-04-10T08:52:52.237Z</time></trkpt><trkpt lat="45.9818283" lon="12.2568383"><ele>352.0</ele><time>2026-04-10T08:52:53.237Z</time></trkpt><trkpt lat="45.981765" lon="12.2567383"><ele>352.0</ele><time>2026-04-10T08:52:54.237Z</time></trkpt><trkpt lat="45.9817433" lon="12.25664"><ele>352.0</ele><time>2026-04-10T08:52:55.237Z</time></trkpt><trkpt lat="45.9817767" lon="12.2565183"><ele>352.16666666666663</ele><time>2026-04-10T08:52:56.237Z</time></trkpt><trkpt lat="45.9818167" lon="12.2563883"><ele>352.3333333333333</ele><time>2026-04-10T08:52:57.237Z</time></trkpt><trkpt lat="45.9818233" lon="12.25627"><ele>352.5</ele><time>2026-04-10T08:52:58.237Z</time></trkpt><trkpt lat="45.981795" lon="12.2561833"><ele>352.6666666666667</ele><time>2026-04-10T08:52:59.237Z</time></trkpt><trkpt lat="45.9817267" lon="12.2561183"><ele>352.83333333333337</ele><time>2026-04-10T08:53:00.237Z</time></trkpt><trkpt lat="45.9816133" lon="12.2561083"><ele>353.0</ele><time>2026-04-10T08:53:01.237Z</time></trkpt><trkpt lat="45.981495" lon="12.2561617"><ele>348.79999999999995</ele><time>2026-04-10T08:53:02.237Z</time></trkpt><trkpt lat="45.9813783" lon="12.2562417"><ele>344.6</ele><time>2026-04-10T08:53:03.237Z</time></trkpt><trkpt lat="45.9812767" lon="12.2563033"><ele>340.4</ele><time>2026-04-10T08:53:04.237Z</time></trkpt><trkpt lat="45.9811833" lon="12.2563217"><ele>336.20000000000005</ele><time>2026-04-10T08:53:05.237Z</time></trkpt><trkpt lat="45.9811083" lon="12.2562517"><ele>332.0</ele><time>2026-04-10T08:53:06.237Z</time></trkpt><trkpt lat="45.9810383" lon="12.25611"><ele>332.0</ele><time>2026-04-10T08:53:07.237Z</time></trkpt><trkpt lat="45.9809767" lon="12.255935"><ele>332.0</ele><time>2026-04-10T08:53:08.237Z</time></trkpt><trkpt lat="45.9809117" lon="12.25575"><ele>332.0</ele><time>2026-04-10T08:53:09.237Z</time></trkpt><trkpt lat="45.98085" lon="12.2555817"><ele>332.0</ele><time>2026-04-10T08:53:10.237Z</time></trkpt><trkpt lat="45.9808067" lon="12.25542"><ele>331.20000000000005</ele><time>2026-04-10T08:53:11.236Z</time></trkpt><trkpt lat="45.9807883" lon="12.2552633"><ele>330.4</ele><time>2026-04-10T08:53:12.237Z</time></trkpt><trkpt lat="45.9808017" lon="12.25511"><ele>329.6</ele><time>2026-04-10T08:53:13.237Z</time></trkpt><trkpt lat="45.98085" lon="12.254965"><ele>328.79999999999995</ele><time>2026-04-10T08:53:14.237Z</time></trkpt><trkpt lat="45.9809283" lon="12.2548367"><ele>328.0</ele><time>2026-04-10T08:53:15.237Z</time></trkpt><trkpt lat="45.9810317" lon="12.25471"><ele>325.25</ele><time>2026-04-10T08:53:16.237Z</time></trkpt><trkpt lat="45.981145" lon="12.254575"><ele>322.5</ele><time>2026-04-10T08:53:17.237Z</time></trkpt><trkpt lat="45.981245" lon="12.2544567"><ele>319.75</ele><time>2026-04-10T08:53:18.237Z</time></trkpt><trkpt lat="45.981335" lon="12.2543467"><ele>317.0</ele><time>2026-04-10T08:53:19.237Z</time></trkpt><trkpt lat="45.98141" lon="12.2542417"><ele>317.0</ele><time>2026-04-10T08:53:20.237Z</time></trkpt><trkpt lat="45.981465" lon="12.2541283"><ele>317.0</ele><time>2026-04-10T08:53:21.237Z</time></trkpt><trkpt lat="45.98151" lon="12.2540033"><ele>317.0</ele><time>2026-04-10T08:53:22.237Z</time></trkpt><trkpt lat="45.981555" lon="12.2538817"><ele>317.0</ele><time>2026-04-10T08:53:23.237Z</time></trkpt><trkpt lat="45.9815917" lon="12.2537567"><ele>317.0</ele><time>2026-04-10T08:53:24.237Z</time></trkpt><trkpt lat="45.9816283" lon="12.25363"><ele>316.4</ele><time>2026-04-10T08:53:25.237Z</time></trkpt><trkpt lat="45.9816617" lon="12.2535033"><ele>315.79999999999995</ele><time>2026-04-10T08:53:26.237Z</time></trkpt><trkpt lat="45.981695" lon="12.253375"><ele>315.2</ele><time>2026-04-10T08:53:27.237Z</time></trkpt><trkpt lat="45.98173" lon="12.2532467"><ele>314.59999999999997</ele><time>2026-04-10T08:53:28.237Z</time></trkpt><trkpt lat="45.9817683" lon="12.2531283"><ele>314.0</ele><time>2026-04-10T08:53:29.237Z</time></trkpt><trkpt lat="45.98182" lon="12.25302"><ele>314.0</ele><time>2026-04-10T08:53:30.236Z</time></trkpt><trkpt lat="45.981895" lon="12.2529383"><ele>314.0</ele><time>2026-04-10T08:53:31.237Z</time></trkpt><trkpt lat="45.9819867" lon="12.252855"><ele>314.0</ele><time>2026-04-10T08:53:32.237Z</time></trkpt><trkpt lat="45.9820867" lon="12.2527583"><ele>314.0</ele><time>2026-04-10T08:53:33.237Z</time></trkpt><trkpt lat="45.9821817" lon="12.2526333"><ele>314.0</ele><time>2026-04-10T08:53:34.237Z</time></trkpt><trkpt lat="45.98225" lon="12.2524733"><ele>314.0</ele><time>2026-04-10T08:53:35.237Z</time></trkpt><trkpt lat="45.9823017" lon="12.2522783"><ele>314.0</ele><time>2026-04-10T08:53:36.237Z</time></trkpt><trkpt lat="45.9823667" lon="12.2520633"><ele>314.0</ele><time>2026-04-10T08:53:37.237Z</time></trkpt><trkpt lat="45.98246" lon="12.2518517"><ele>309.6666666666667</ele><time>2026-04-10T08:53:38.237Z</time></trkpt><trkpt lat="45.9825633" lon="12.25164"><ele>305.3333333333333</ele><time>2026-04-10T08:53:39.237Z</time></trkpt><trkpt lat="45.9826883" lon="12.2514383"><ele>301.0</ele><time>2026-04-10T08:53:40.237Z</time></trkpt><trkpt lat="45.9828317" lon="12.25127"><ele>301.0</ele><time>2026-04-10T08:53:41.237Z</time></trkpt><trkpt lat="45.9829717" lon="12.2511233"><ele>301.0</ele><time>2026-04-10T08:53:42.237Z</time></trkpt><trkpt lat="45.9831083" lon="12.2510117"><ele>301.0</ele><time>2026-04-10T08:53:43.237Z</time></trkpt><trkpt lat="45.9832167" lon="12.250915"><ele>301.0</ele><time>2026-04-10T08:53:44.237Z</time></trkpt><trkpt lat="45.9833" lon="12.2508017"><ele>301.0</ele><time>2026-04-10T08:53:45.237Z</time></trkpt><trkpt lat="45.9833517" lon="12.2506767"><ele>301.0</ele><time>2026-04-10T08:53:46.236Z</time></trkpt><trkpt lat="45.98337" lon="12.2505533"><ele>301.0</ele><time>2026-04-10T08:53:47.237Z</time></trkpt><trkpt lat="45.9833483" lon="12.2504133"><ele>301.0</ele><time>2026-04-10T08:53:49.237Z</time></trkpt><trkpt lat="45.98328" lon="12.2503767"><ele>301.0</ele><time>2026-04-10T08:53:51.237Z</time></trkpt><trkpt lat="45.9831417" lon="12.25046"><ele>301.0</ele><time>2026-04-10T08:53:53.237Z</time></trkpt><trkpt lat="45.9830267" lon="12.250545"><ele>301.0</ele><time>2026-04-10T08:53:54.237Z</time></trkpt><trkpt lat="45.98289" lon="12.2506317"><ele>301.0</ele><time>2026-04-10T08:53:55.237Z</time></trkpt><trkpt lat="45.9827383" lon="12.2507217"><ele>301.0</ele><time>2026-04-10T08:53:56.237Z</time></trkpt><trkpt lat="45.982585" lon="12.2508017"><ele>301.0</ele><time>2026-04-10T08:53:57.237Z</time></trkpt><trkpt lat="45.98244" lon="12.2508933"><ele>301.0</ele><time>2026-04-10T08:53:58.237Z</time></trkpt><trkpt lat="45.9823" lon="12.2510133"><ele>299.0</ele><time>2026-04-10T08:53:59.236Z</time></trkpt><trkpt lat="45.9821567" lon="12.2510533"><ele>297.0</ele><time>2026-04-10T08:54:00.237Z</time></trkpt><trkpt lat="45.981995" lon="12.2510967"><ele>295.0</ele><time>2026-04-10T08:54:01.237Z</time></trkpt><trkpt lat="45.9818267" lon="12.2511"><ele>293.0</ele><time>2026-04-10T08:54:02.237Z</time></trkpt><trkpt lat="45.9816567" lon="12.25106"><ele>291.0</ele><time>2026-04-10T08:54:03.237Z</time></trkpt><trkpt lat="45.9814883" lon="12.2509767"><ele>289.0</ele><time>2026-04-10T08:54:04.237Z</time></trkpt><trkpt lat="45.9813183" lon="12.2509"><ele>289.0</ele><time>2026-04-10T08:54:05.237Z</time></trkpt><trkpt lat="45.98115" lon="12.2508417"><ele>289.0</ele><time>2026-04-10T08:54:06.237Z</time></trkpt><trkpt lat="45.98098" lon="12.250805"><ele>289.0</ele><time>2026-04-10T08:54:07.237Z</time></trkpt><trkpt lat="45.9808117" lon="12.2507867"><ele>290.66666666666663</ele><time>2026-04-10T08:54:08.237Z</time></trkpt><trkpt lat="45.9806467" lon="12.2507517"><ele>292.3333333333333</ele><time>2026-04-10T08:54:09.237Z</time></trkpt><trkpt lat="45.9804917" lon="12.2506917"><ele>294.0</ele><time>2026-04-10T08:54:10.237Z</time></trkpt><trkpt lat="45.9803367" lon="12.2506033"><ele>294.0</ele><time>2026-04-10T08:54:11.237Z</time></trkpt><trkpt lat="45.9801767" lon="12.2505083"><ele>294.0</ele><time>2026-04-10T08:54:12.237Z</time></trkpt><trkpt lat="45.9800083" lon="12.250435"><ele>294.0</ele><time>2026-04-10T08:54:13.237Z</time></trkpt><trkpt lat="45.9798417" lon="12.250395"><ele>292.25</ele><time>2026-04-10T08:54:14.237Z</time></trkpt><trkpt lat="45.9796917" lon="12.2503683"><ele>290.5</ele><time>2026-04-10T08:54:15.237Z</time></trkpt><trkpt lat="45.9795617" lon="12.2503483"><ele>288.75</ele><time>2026-04-10T08:54:16.237Z</time></trkpt><trkpt lat="45.979455" lon="12.2503167"><ele>287.0</ele><time>2026-04-10T08:54:17.237Z</time></trkpt><trkpt lat="45.9793617" lon="12.2502783"><ele>287.0</ele><time>2026-04-10T08:54:18.237Z</time></trkpt><trkpt lat="45.9792833" lon="12.2502283"><ele>287.0</ele><time>2026-04-10T08:54:19.237Z</time></trkpt><trkpt lat="45.9792183" lon="12.25017"><ele>287.0</ele><time>2026-04-10T08:54:20.237Z</time></trkpt><trkpt lat="45.9791617" lon="12.2501033"><ele>287.0</ele><time>2026-04-10T08:54:21.237Z</time></trkpt><trkpt lat="45.979075" lon="12.2499733"><ele>287.0</ele><time>2026-04-10T08:54:23.237Z</time></trkpt><trkpt lat="45.9790133" lon="12.2498667"><ele>286.1666666666667</ele><time>2026-04-10T08:54:25.237Z</time></trkpt><trkpt lat="45.9789683" lon="12.24994"><ele>285.33333333333337</ele><time>2026-04-10T08:54:29.237Z</time></trkpt><trkpt lat="45.9789917" lon="12.2500783"><ele>284.5</ele><time>2026-04-10T08:54:31.237Z</time></trkpt><trkpt lat="45.979035" lon="12.2502367"><ele>283.6666666666667</ele><time>2026-04-10T08:54:33.237Z</time></trkpt><trkpt lat="45.9790633" lon="12.2503183"><ele>282.8333333333333</ele><time>2026-04-10T08:54:34.237Z</time></trkpt><trkpt lat="45.9791033" lon="12.250395"><ele>282.0</ele><time>2026-04-10T08:54:35.237Z</time></trkpt><trkpt lat="45.9791467" lon="12.2504717"><ele>283.0</ele><time>2026-04-10T08:54:36.237Z</time></trkpt><trkpt lat="45.9791933" lon="12.2505483"><ele>284.0</ele><time>2026-04-10T08:54:37.237Z</time></trkpt><trkpt lat="45.97926" lon="12.2506867"><ele>285.0</ele><time>2026-04-10T08:54:39.237Z</time></trkpt><trkpt lat="45.979265" lon="12.2508167"><ele>286.0</ele><time>2026-04-10T08:54:41.237Z</time></trkpt><trkpt lat="45.9791817" lon="12.250925"><ele>287.0</ele><time>2026-04-10T08:54:43.237Z</time></trkpt><trkpt lat="45.9791167" lon="12.2509633"><ele>283.6666666666667</ele><time>2026-04-10T08:54:44.237Z</time></trkpt><trkpt lat="45.9790433" lon="12.2509983"><ele>280.33333333333337</ele><time>2026-04-10T08:54:45.237Z</time></trkpt><trkpt lat="45.978965" lon="12.2510433"><ele>277.0</ele><time>2026-04-10T08:54:46.237Z</time></trkpt><trkpt lat="45.9788867" lon="12.2510933"><ele>273.6666666666667</ele><time>2026-04-10T08:54:47.237Z</time></trkpt><trkpt lat="45.9787983" lon="12.2511467"><ele>270.3333333333333</ele><time>2026-04-10T08:54:48.237Z</time></trkpt><trkpt lat="45.9787033" lon="12.2512"><ele>267.0</ele><time>2026-04-10T08:54:49.237Z</time></trkpt><trkpt lat="45.97861" lon="12.2512533"><ele>267.0</ele><time>2026-04-10T08:54:50.237Z</time></trkpt><trkpt lat="45.97852" lon="12.25131"><ele>267.0</ele><time>2026-04-10T08:54:51.237Z</time></trkpt><trkpt lat="45.9784333" lon="12.2513817"><ele>267.0</ele><time>2026-04-10T08:54:52.237Z</time></trkpt><trkpt lat="45.97835" lon="12.251445"><ele>267.0</ele><time>2026-04-10T08:54:53.237Z</time></trkpt><trkpt lat="45.978275" lon="12.25152"><ele>267.0</ele><time>2026-04-10T08:54:54.237Z</time></trkpt><trkpt lat="45.978205" lon="12.2515967"><ele>264.5</ele><time>2026-04-10T08:54:55.237Z</time></trkpt><trkpt lat="45.9781317" lon="12.25167"><ele>262.0</ele><time>2026-04-10T08:54:56.237Z</time></trkpt><trkpt lat="45.9780567" lon="12.2517317"><ele>259.5</ele><time>2026-04-10T08:54:57.237Z</time></trkpt><trkpt lat="45.9779767" lon="12.2517833"><ele>257.0</ele><time>2026-04-10T08:54:58.237Z</time></trkpt><trkpt lat="45.9778933" lon="12.2518217"><ele>254.5</ele><time>2026-04-10T08:54:59.237Z</time></trkpt><trkpt lat="45.9778" lon="12.2518433"><ele>252.0</ele><time>2026-04-10T08:55:00.237Z</time></trkpt><trkpt lat="45.9777033" lon="12.2518467"><ele>252.0</ele><time>2026-04-10T08:55:01.237Z</time></trkpt><trkpt lat="45.9775983" lon="12.2518267"><ele>252.0</ele><time>2026-04-10T08:55:02.237Z</time></trkpt><trkpt lat="45.9774817" lon="12.2517833"><ele>252.0</ele><time>2026-04-10T08:55:03.237Z</time></trkpt><trkpt lat="45.9773667" lon="12.2517183"><ele>252.0</ele><time>2026-04-10T08:55:04.237Z</time></trkpt><trkpt lat="45.9772683" lon="12.2516517"><ele>250.66666666666666</ele><time>2026-04-10T08:55:05.237Z</time></trkpt><trkpt lat="45.97719" lon="12.251585"><ele>249.33333333333331</ele><time>2026-04-10T08:55:06.237Z</time></trkpt><trkpt lat="45.9771167" lon="12.2515333"><ele>248.0</ele><time>2026-04-10T08:55:07.237Z</time></trkpt><trkpt lat="45.9770417" lon="12.251515"><ele>246.66666666666666</ele><time>2026-04-10T08:55:08.237Z</time></trkpt><trkpt lat="45.9769567" lon="12.2515283"><ele>245.33333333333331</ele><time>2026-04-10T08:55:09.237Z</time></trkpt><trkpt lat="45.9768667" lon="12.25156"><ele>244.0</ele><time>2026-04-10T08:55:10.237Z</time></trkpt><trkpt lat="45.97679" lon="12.2515983"><ele>244.0</ele><time>2026-04-10T08:55:11.237Z</time></trkpt><trkpt lat="45.97672" lon="12.251645"><ele>243.99999999999997</ele><time>2026-04-10T08:55:12.237Z</time></trkpt><trkpt lat="45.9766133" lon="12.2516983"><ele>243.99999999999997</ele><time>2026-04-10T08:55:14.237Z</time></trkpt><trkpt lat="45.9765417" lon="12.2516917"><ele>244.0</ele><time>2026-04-10T08:55:16.237Z</time></trkpt><trkpt lat="45.9764833" lon="12.2516067"><ele>244.0</ele><time>2026-04-10T08:55:18.237Z</time></trkpt><trkpt lat="45.9764533" lon="12.2514583"><ele>243.79999999999998</ele><time>2026-04-10T08:55:20.237Z</time></trkpt><trkpt lat="45.9764067" lon="12.25135"><ele>243.59999999999997</ele><time>2026-04-10T08:55:22.237Z</time></trkpt><trkpt lat="45.976335" lon="12.25129"><ele>243.4</ele><time>2026-04-10T08:55:24.237Z</time></trkpt><trkpt lat="45.976275" lon="12.2512517"><ele>243.2</ele><time>2026-04-10T08:55:26.237Z</time></trkpt><trkpt lat="45.9761767" lon="12.2511017"><ele>243.0</ele><time>2026-04-10T08:55:57.237Z</time></trkpt><trkpt lat="45.9760967" lon="12.2509733"><ele>243.0</ele><time>2026-04-10T08:55:59.237Z</time></trkpt><trkpt lat="45.97605" lon="12.2509"><ele>243.0</ele><time>2026-04-10T08:56:00.237Z</time></trkpt><trkpt lat="45.9760083" lon="12.25081"><ele>243.0</ele><time>2026-04-10T08:56:01.237Z</time></trkpt><trkpt lat="45.9759717" lon="12.250655"><ele>243.0</ele><time>2026-04-10T08:56:03.237Z</time></trkpt><trkpt lat="45.97594" lon="12.25049"><ele>243.0</ele><time>2026-04-10T08:56:05.237Z</time></trkpt><trkpt lat="45.975875" lon="12.25033"><ele>242.16666666666666</ele><time>2026-04-10T08:56:07.237Z</time></trkpt><trkpt lat="45.975825" lon="12.2502533"><ele>241.33333333333331</ele><time>2026-04-10T08:56:08.237Z</time></trkpt><trkpt lat="45.9757683" lon="12.25017"><ele>240.5</ele><time>2026-04-10T08:56:09.237Z</time></trkpt><trkpt lat="45.9757117" lon="12.2500867"><ele>239.66666666666666</ele><time>2026-04-10T08:56:10.237Z</time></trkpt><trkpt lat="45.9756467" lon="12.2500167"><ele>238.83333333333331</ele><time>2026-04-10T08:56:11.237Z</time></trkpt><trkpt lat="45.9755867" lon="12.2499583"><ele>238.0</ele><time>2026-04-10T08:56:12.236Z</time></trkpt><trkpt lat="45.97553" lon="12.2499167"><ele>238.0</ele><time>2026-04-10T08:56:13.237Z</time></trkpt><trkpt lat="45.9754467" lon="12.249885"><ele>238.0</ele><time>2026-04-10T08:56:15.237Z</time></trkpt><trkpt lat="45.97537" lon="12.2498567"><ele>238.0</ele><time>2026-04-10T08:56:18.237Z</time></trkpt><trkpt lat="45.9752767" lon="12.2497767"><ele>238.0</ele><time>2026-04-10T08:56:27.237Z</time></trkpt><trkpt lat="45.9752033" lon="12.2497067"><ele>238.0</ele><time>2026-04-10T08:56:29.237Z</time></trkpt><trkpt lat="45.9751167" lon="12.2496817"><ele>238.66666666666666</ele><time>2026-04-10T08:56:31.237Z</time></trkpt><trkpt lat="45.9750283" lon="12.2496917"><ele>239.33333333333331</ele><time>2026-04-10T08:56:33.237Z</time></trkpt><trkpt lat="45.974925" lon="12.249725"><ele>240.0</ele><time>2026-04-10T08:56:35.237Z</time></trkpt><trkpt lat="45.974855" lon="12.249765"><ele>240.66666666666669</ele><time>2026-04-10T08:56:37.237Z</time></trkpt><trkpt lat="45.9747617" lon="12.2497883"><ele>241.33333333333334</ele><time>2026-04-10T08:56:40.237Z</time></trkpt><trkpt lat="45.9748267" lon="12.24979"><ele>242.0</ele><time>2026-04-10T08:56:47.237Z</time></trkpt><trkpt lat="45.9748867" lon="12.24974"><ele>242.00000000000003</ele><time>2026-04-10T08:56:49.236Z</time></trkpt><trkpt lat="45.974955" lon="12.2496917"><ele>242.0</ele><time>2026-04-10T08:56:51.236Z</time></trkpt><trkpt lat="45.9750167" lon="12.2496417"><ele>242.0</ele><time>2026-04-10T08:56:53.237Z</time></trkpt><trkpt lat="45.9750983" lon="12.2496283"><ele>242.0</ele><time>2026-04-10T08:56:56.237Z</time></trkpt><trkpt lat="45.97517" lon="12.2496633"><ele>242.00000000000003</ele><time>2026-04-10T08:56:58.237Z</time></trkpt><trkpt lat="45.9752267" lon="12.2497367"><ele>242.0</ele><time>2026-04-10T08:57:00.237Z</time></trkpt><trkpt lat="45.9752883" lon="12.2498117"><ele>240.2</ele><time>2026-04-10T08:57:02.237Z</time></trkpt><trkpt lat="45.9753883" lon="12.2497067"><ele>238.39999999999998</ele><time>2026-04-10T08:57:11.237Z</time></trkpt><trkpt lat="45.9754067" lon="12.2496133"><ele>236.60000000000002</ele><time>2026-04-10T08:57:12.237Z</time></trkpt><trkpt lat="45.9754367" lon="12.2495233"><ele>234.8</ele><time>2026-04-10T08:57:13.237Z</time></trkpt><trkpt lat="45.9754867" lon="12.2493917"><ele>233.0</ele><time>2026-04-10T08:57:15.237Z</time></trkpt><trkpt lat="45.975495" lon="12.2492533"><ele>233.00000000000003</ele><time>2026-04-10T08:57:17.237Z</time></trkpt><trkpt lat="45.9754717" lon="12.24916"><ele>233.0</ele><time>2026-04-10T08:57:18.237Z</time></trkpt><trkpt lat="45.97544" lon="12.2490533"><ele>233.0</ele><time>2026-04-10T08:57:19.237Z</time></trkpt><trkpt lat="45.97541" lon="12.2489417"><ele>233.0</ele><time>2026-04-10T08:57:20.237Z</time></trkpt><trkpt lat="45.97538" lon="12.2488417"><ele>233.00000000000003</ele><time>2026-04-10T08:57:21.237Z</time></trkpt><trkpt lat="45.97535" lon="12.2487317"><ele>233.0</ele><time>2026-04-10T08:57:22.237Z</time></trkpt><trkpt lat="45.9753117" lon="12.24862"><ele>233.00000000000003</ele><time>2026-04-10T08:57:23.237Z</time></trkpt><trkpt lat="45.975275" lon="12.24851"><ele>233.0</ele><time>2026-04-10T08:57:24.237Z</time></trkpt><trkpt lat="45.9752383" lon="12.24841"><ele>233.0</ele><time>2026-04-10T08:57:25.237Z</time></trkpt><trkpt lat="45.9752117" lon="12.2483267"><ele>233.0</ele><time>2026-04-10T08:57:26.237Z</time></trkpt><trkpt lat="45.9751517" lon="12.24822"><ele>233.00000000000003</ele><time>2026-04-10T08:57:28.237Z</time></trkpt><trkpt lat="45.9752233" lon="12.248255"><ele>233.0</ele><time>2026-04-10T08:58:31.237Z</time></trkpt><trkpt lat="45.9752667" lon="12.2483933"><ele>233.00000000000003</ele><time>2026-04-10T08:58:33.237Z</time></trkpt><trkpt lat="45.9753083" lon="12.2485017"><ele>233.0</ele><time>2026-04-10T08:58:34.237Z</time></trkpt><trkpt lat="45.9753467" lon="12.2486133"><ele>233.0</ele><time>2026-04-10T08:58:35.237Z</time></trkpt><trkpt lat="45.9753783" lon="12.2487333"><ele>233.0</ele><time>2026-04-10T08:58:36.237Z</time></trkpt><trkpt lat="45.9754017" lon="12.24885"><ele>233.00000000000003</ele><time>2026-04-10T08:58:37.237Z</time></trkpt><trkpt lat="45.9754233" lon="12.248965"><ele>233.0</ele><time>2026-04-10T08:58:38.237Z</time></trkpt><trkpt lat="45.9754433" lon="12.24908"><ele>233.00000000000003</ele><time>2026-04-10T08:58:39.237Z</time></trkpt><trkpt lat="45.975465" lon="12.2491767"><ele>233.0</ele><time>2026-04-10T08:58:40.237Z</time></trkpt><trkpt lat="45.9754967" lon="12.2493367"><ele>233.0</ele><time>2026-04-10T08:58:42.237Z</time></trkpt><trkpt lat="45.975495" lon="12.249455"><ele>233.0</ele><time>2026-04-10T08:58:44.237Z</time></trkpt><trkpt lat="45.9754583" lon="12.249555"><ele>233.00000000000003</ele><time>2026-04-10T08:58:46.236Z</time></trkpt><trkpt lat="45.9754283" lon="12.2496383"><ele>233.0</ele><time>2026-04-10T08:58:47.237Z</time></trkpt><trkpt lat="45.9754017" lon="12.2497317"><ele>233.0</ele><time>2026-04-10T08:58:48.237Z</time></trkpt><trkpt lat="45.9753933" lon="12.24984"><ele>238.0</ele><time>2026-04-10T08:58:50.237Z</time></trkpt></trkseg></trk></gpx>